createdAt,value
2023-04-08T00:01:55.736Z,56.33496
2023-04-08T00:03:55.923Z,56.31934
2023-04-08T00:05:09.822Z,56.08984
2023-04-08T00:07:09.879Z,56.29199
2023-04-08T00:09:09.800Z,56.27539
2023-04-08T00:11:09.837Z,56.1543
2023-04-08T00:13:09.852Z,56.45703
2023-04-08T00:15:09.788Z,56.51074
2023-04-08T00:17:10.024Z,56.20313
2023-04-08T00:19:09.888Z,56.05469
2023-04-08T00:21:10.854Z,56.6582
2023-04-08T00:23:10.900Z,56.67676
2023-04-08T00:25:10.882Z,57.05371
2023-04-08T00:27:10.893Z,56.52832
2023-04-08T00:29:10.957Z,57.10254
2023-04-08T00:31:11.106Z,57.13965
2023-04-08T00:33:11.030Z,56.97363
2023-04-08T00:35:30.611Z,56.8623
2023-04-08T00:37:30.363Z,56.91895
2023-04-08T00:39:30.247Z,57.25781
2023-04-08T00:41:30.206Z,57.55566
2023-04-08T00:43:30.245Z,57.08887
2023-04-08T00:45:30.355Z,57.22363
2023-04-08T00:47:30.243Z,57.06836
2023-04-08T00:49:30.295Z,57.23535
2023-04-08T00:50:56.522Z,57.22363
2023-04-08T00:52:56.496Z,57.10254
2023-04-08T00:54:56.548Z,56.85156
2023-04-08T00:56:56.479Z,56.66113
2023-04-08T00:58:56.513Z,56.81445
2023-04-08T01:00:56.575Z,56.91797
2023-04-08T01:02:56.653Z,57.38086
2023-04-08T01:05:54.351Z,57.36133
2023-04-08T01:07:54.380Z,57.28613
2023-04-08T01:09:54.352Z,56.54883
2023-04-08T01:11:54.326Z,56.94531
2023-04-08T01:13:54.275Z,56.84766
2023-04-08T01:15:54.337Z,56.9541
2023-04-08T01:17:54.424Z,57.55859
2023-04-08T01:19:54.258Z,57.66113
2023-04-08T01:21:18.475Z,57.58691
2023-04-08T01:23:18.477Z,57.50195
2023-04-08T01:25:18.539Z,56.26855
2023-04-08T01:27:18.484Z,56.38086
2023-04-08T01:29:18.436Z,57.56445
2023-04-08T01:31:18.539Z,57.49414
2023-04-08T01:33:18.504Z,56.97363
2023-04-08T01:36:22.282Z,57.5791
2023-04-08T01:38:22.328Z,56.64551
2023-04-08T01:40:22.298Z,57.76465
2023-04-08T01:42:22.280Z,57.65625
2023-04-08T01:44:22.468Z,57.41406
2023-04-08T01:46:22.335Z,57.79199
2023-04-08T01:48:22.313Z,57.75098
2023-04-08T01:51:30.957Z,57.50195
2023-04-08T01:53:30.944Z,57.51953
2023-04-08T01:55:30.857Z,57.42285
2023-04-08T01:57:30.898Z,57.0957
2023-04-08T01:59:30.854Z,56.94434
2023-04-08T02:01:31.232Z,56.96582
2023-04-08T02:03:31.542Z,57.42871
2023-04-08T02:05:30.884Z,57.16895
2023-04-08T02:07:00.168Z,57.20605
2023-04-08T02:09:00.150Z,56.79395
2023-04-08T02:11:00.173Z,57.44629
2023-04-08T02:13:00.130Z,57.41992
2023-04-08T02:15:00.113Z,58.06934
2023-04-08T02:17:00.114Z,57.875
2023-04-08T02:19:00.190Z,57.75098
2023-04-08T02:22:28.274Z,57.42188
2023-04-08T02:24:28.460Z,57.72461
2023-04-08T02:26:28.385Z,58.41602
2023-04-08T02:28:28.279Z,58.26074
2023-04-08T02:30:28.275Z,58.4707
2023-04-08T02:32:28.309Z,58.63965
2023-04-08T02:34:28.344Z,58.2373
2023-04-08T02:37:08.333Z,58.16992
2023-04-08T02:39:08.522Z,58.25195
2023-04-08T02:41:08.291Z,57.98633
2023-04-08T02:43:08.348Z,57.9668
2023-04-08T02:45:08.258Z,57.79492
2023-04-08T02:47:08.366Z,58.12598
2023-04-08T02:49:08.350Z,58.54199
2023-04-08T02:52:46.105Z,58.32031
2023-04-08T02:54:46.141Z,58.01855
2023-04-08T02:56:46.232Z,58.53027
2023-04-08T02:58:46.115Z,58.5752
2023-04-08T03:00:46.132Z,58.79688
2023-04-08T03:02:46.300Z,58.2002
2023-04-08T03:04:45.982Z,58.60449
2023-04-08T03:07:20.832Z,58.4375
2023-04-08T03:09:20.875Z,58.21191
2023-04-08T03:11:20.849Z,58.81055
2023-04-08T03:13:20.901Z,58.29102
2023-04-08T03:15:20.819Z,58.3877
2023-04-08T03:17:20.938Z,58.26367
2023-04-08T03:19:20.822Z,58.80859
2023-04-08T03:21:20.864Z,58.80176
2023-04-08T03:22:41.285Z,58.77637
2023-04-08T03:24:41.340Z,58.64648
2023-04-08T03:26:41.274Z,58.65918
2023-04-08T03:28:41.346Z,58.6709
2023-04-08T03:30:41.284Z,58.68652
2023-04-08T03:32:41.366Z,59.01855
2023-04-08T03:34:41.321Z,59.09961
2023-04-08T03:37:50.804Z,58.72266
2023-04-08T03:39:50.804Z,58.58984
2023-04-08T03:41:50.794Z,58.49609
2023-04-08T03:43:50.834Z,58.69238
2023-04-08T03:45:50.880Z,59.07129
2023-04-08T03:47:53.972Z,59.10938
2023-04-08T03:49:50.807Z,58.62109
2023-04-08T03:53:17.513Z,58.9248
2023-04-08T03:55:17.491Z,58.36816
2023-04-08T03:57:17.418Z,58.84082
2023-04-08T03:59:17.468Z,58.78125
2023-04-08T04:01:20.024Z,59.12305
2023-04-08T04:03:17.742Z,59.15625
2023-04-08T04:05:17.444Z,59.23535
2023-04-08T04:08:56.348Z,59.29883
2023-04-08T04:10:56.369Z,59.01563
2023-04-08T04:12:56.280Z,59.22363
2023-04-08T04:14:56.808Z,58.82617
2023-04-08T04:16:56.419Z,58.56348
2023-04-08T04:18:56.966Z,58.49121
2023-04-08T04:20:56.313Z,57.83594
2023-04-08T04:23:55.166Z,58.47754
2023-04-08T04:25:55.136Z,59.10449
2023-04-08T04:27:55.257Z,59.01563
2023-04-08T04:29:55.379Z,59.16504
2023-04-08T04:31:55.260Z,59.11328
2023-04-08T04:33:55.312Z,59.2207
2023-04-08T04:35:55.300Z,59.33203
2023-04-08T04:39:08.987Z,59.41797
2023-04-08T04:41:08.920Z,58.6875
2023-04-08T04:43:08.931Z,58.34473
2023-04-08T04:45:08.946Z,59.26953
2023-04-08T04:47:08.896Z,59.10059
2023-04-08T04:49:08.922Z,57.7041
2023-04-08T04:51:08.924Z,57.8252
2023-04-08T04:54:12.374Z,58.84961
2023-04-08T04:56:12.346Z,58.47559
2023-04-08T04:58:12.383Z,58.35254
2023-04-08T05:00:12.348Z,58.98828
2023-04-08T05:02:12.611Z,58.77734
2023-04-08T05:04:12.378Z,59.68555
2023-04-08T05:06:12.345Z,58.76367
2023-04-08T05:08:58.068Z,59.87598
2023-04-08T05:10:58.063Z,60.1875
2023-04-08T05:12:57.997Z,60.99121
2023-04-08T05:14:58.195Z,61.65039
2023-04-08T05:16:58.103Z,62.26074
2023-04-08T05:18:58.029Z,61.18262
2023-04-08T05:20:58.167Z,61.58789
2023-04-08T05:23:51.021Z,61.05176
2023-04-08T05:25:51.004Z,61.30176
2023-04-08T05:27:53.876Z,61.05273
2023-04-08T05:29:54.045Z,60.2998
2023-04-08T05:31:51.768Z,60.57324
2023-04-08T05:33:50.879Z,60.47656
2023-04-08T05:35:51.042Z,60.48047
2023-04-08T05:37:50.985Z,60.40332
2023-04-08T05:39:17.782Z,60.48242
2023-04-08T05:41:17.837Z,59.85352
2023-04-08T05:43:17.957Z,60.88379
2023-04-08T05:45:17.684Z,61.69629
2023-04-08T05:47:17.929Z,61.85547
2023-04-08T05:49:17.712Z,61.54102
2023-04-08T05:51:17.896Z,61.75098
2023-04-08T05:54:53.710Z,60.80469
2023-04-08T05:56:53.714Z,61.07324
2023-04-08T05:58:53.571Z,59.90332
2023-04-08T06:00:53.689Z,59.54395
2023-04-08T06:02:54.274Z,59.97363
2023-04-08T06:04:53.753Z,60.19824
2023-04-08T06:06:53.749Z,60.87891
2023-04-08T06:10:04.528Z,60.2334
2023-04-08T06:12:04.499Z,58.59082
2023-04-08T06:14:04.494Z,58.07617
2023-04-08T06:16:04.656Z,58.6748
2023-04-08T06:18:04.534Z,58.33008
2023-04-08T06:20:04.507Z,57.35156
2023-04-08T06:22:04.602Z,57.81152
2023-04-08T06:25:06.789Z,58.25293
2023-04-08T06:27:07.100Z,58.04102
2023-04-08T06:29:06.834Z,57.93164
2023-04-08T06:33:06.528Z,59.14355
2023-04-08T06:35:06.479Z,59.88867
2023-04-08T06:37:06.769Z,58.45313
2023-04-08T06:40:09.016Z,58.47949
2023-04-08T06:42:08.972Z,58.22168
2023-04-08T06:44:08.960Z,57.85352
2023-04-08T06:46:09.268Z,57.27148
2023-04-08T06:48:09.108Z,56.04004
2023-04-08T06:50:09.081Z,56.15234
2023-04-08T06:52:08.995Z,54.83301
2023-04-08T06:55:10.720Z,52.7373
2023-04-08T06:57:10.743Z,53.2793
2023-04-08T06:59:10.776Z,52.47852
2023-04-08T07:01:11.009Z,53.38281
2023-04-08T07:03:11.024Z,52.66699
2023-04-08T07:05:10.845Z,51.50586
2023-04-08T07:07:10.631Z,52.16211
2023-04-08T07:10:26.000Z,51.26172
2023-04-08T07:12:25.832Z,51.47266
2023-04-08T07:14:25.785Z,53.01465
2023-04-08T07:16:25.978Z,54.22168
2023-04-08T07:18:25.962Z,56.20313
2023-04-08T07:20:25.954Z,55.82715
2023-04-08T07:22:26.093Z,55.70117
2023-04-08T07:25:31.314Z,56.62598
2023-04-08T07:27:31.292Z,55.04688
2023-04-08T07:29:31.357Z,54.48926
2023-04-08T07:31:31.475Z,55.01758
2023-04-08T07:33:31.362Z,55.71094
2023-04-08T07:35:31.424Z,55.12402
2023-04-08T07:37:31.368Z,56.11426
2023-04-08T07:40:47.879Z,55.87305
2023-04-08T07:42:47.794Z,54.46484
2023-04-08T07:44:47.802Z,53.91211
2023-04-08T07:46:47.860Z,52.57422
2023-04-08T07:48:48.151Z,53.78223
2023-04-08T07:51:07.844Z,52.90527
2023-04-08T07:52:47.805Z,52.44238
2023-04-08T07:56:05.685Z,51.18359
2023-04-08T07:58:05.350Z,51.80176
2023-04-08T08:00:05.354Z,51.39844
2023-04-08T08:02:05.452Z,48.72461
2023-04-08T08:04:05.638Z,48.97852
2023-04-08T08:06:05.467Z,48.11328
2023-04-08T08:08:05.308Z,48.7334
2023-04-08T08:11:33.539Z,47.98633
2023-04-08T08:13:33.461Z,49.56445
2023-04-08T08:15:33.668Z,48.65332
2023-04-08T08:17:33.555Z,47.47559
2023-04-08T08:19:33.635Z,46.39746
2023-04-08T08:21:33.479Z,47.00684
2023-04-08T08:23:33.472Z,46.41211
2023-04-08T08:26:26.924Z,46.68262
2023-04-08T08:28:26.972Z,45.7959
2023-04-08T08:30:26.935Z,43.7002
2023-04-08T08:32:27.068Z,46.66895
2023-04-08T08:34:26.970Z,45.09766
2023-04-08T08:36:26.952Z,43.43457
2023-04-08T08:38:26.910Z,41.45117
2023-04-08T08:41:26.010Z,43.14355
2023-04-08T08:43:26.052Z,41.0498
2023-04-08T08:45:26.176Z,41.18164
2023-04-08T08:47:26.021Z,40.28027
2023-04-08T08:49:26.680Z,39.98242
2023-04-08T08:51:25.952Z,39.34082
2023-04-08T08:53:25.967Z,39.04492
2023-04-08T08:56:21.127Z,37.08105
2023-04-08T08:58:21.096Z,36.93945
2023-04-08T09:00:21.056Z,39.03711
2023-04-08T09:02:21.179Z,37.46582
2023-04-08T09:04:21.537Z,36.82129
2023-04-08T09:06:21.053Z,36.00488
2023-04-08T09:08:21.064Z,34.05273
2023-04-08T09:11:57.933Z,36.40625
2023-04-08T09:13:57.817Z,35.2832
2023-04-08T09:15:57.933Z,34.31543
2023-04-08T09:17:57.869Z,33.06738
2023-04-08T09:19:57.904Z,35.08398
2023-04-08T09:21:57.772Z,31.48633
2023-04-08T09:23:57.754Z,31.34961
2023-04-08T09:26:57.602Z,32.25195
2023-04-08T09:28:57.678Z,30.46582
2023-04-08T09:30:57.583Z,30.79785
2023-04-08T09:32:57.676Z,31.57324
2023-04-08T09:34:57.630Z,31.6709
2023-04-08T09:36:57.611Z,33
2023-04-08T09:38:57.574Z,30.9248
2023-04-08T09:42:34.970Z,31.02246
2023-04-08T09:44:34.960Z,32.12988
2023-04-08T09:46:35.022Z,31.49219
2023-04-08T09:48:34.930Z,31.5127
2023-04-08T09:50:34.927Z,30.97754
2023-04-08T09:52:34.915Z,31.28613
2023-04-08T09:54:34.910Z,33.06152
2023-04-08T09:57:08.836Z,30.84375
2023-04-08T09:59:08.830Z,29.79688
2023-04-08T10:01:09.295Z,29.60059
2023-04-08T10:03:09.230Z,30.69824
2023-04-08T10:05:09.070Z,30.92969
2023-04-08T10:07:08.908Z,28.39063
2023-04-08T10:09:08.826Z,31.23145
2023-04-08T10:12:40.474Z,30.09473
2023-04-08T10:14:40.330Z,30.13867
2023-04-08T10:16:40.562Z,27.80078
2023-04-08T10:18:40.463Z,29.60254
2023-04-08T10:20:40.417Z,30.26172
2023-04-08T10:22:40.670Z,30.3584
2023-04-08T10:24:40.442Z,30.94336
2023-04-08T10:27:46.911Z,31.08594
2023-04-08T10:29:46.978Z,30.17188
2023-04-08T10:31:46.827Z,30.5127
2023-04-08T10:33:46.810Z,28.45996
2023-04-08T10:35:47.019Z,30.47754
2023-04-08T10:37:46.752Z,27.83203
2023-04-08T10:39:46.719Z,29.22363
2023-04-08T10:42:37.684Z,29.35254
2023-04-08T10:44:37.634Z,30.38281
2023-04-08T10:46:37.811Z,27.47754
2023-04-08T10:48:37.741Z,28.87988
2023-04-08T10:50:37.658Z,28.7998
2023-04-08T10:52:37.615Z,29.08594
2023-04-08T10:54:37.850Z,30.56445
2023-04-08T10:57:42.333Z,29.87891
2023-04-08T10:59:42.182Z,28.14551
2023-04-08T11:01:42.390Z,29.9043
2023-04-08T11:03:42.870Z,29.18359
2023-04-08T11:05:42.553Z,30.42773
2023-04-08T11:07:42.454Z,31.25586
2023-04-08T11:09:42.202Z,29.56543
2023-04-08T11:13:21.742Z,29.59375
2023-04-08T11:15:21.848Z,29.53223
2023-04-08T11:17:21.617Z,30.28613
2023-04-08T11:19:21.849Z,29.44336
2023-04-08T11:21:21.898Z,29.42285
2023-04-08T11:23:21.837Z,29.73633
2023-04-08T11:25:21.802Z,29.61523
2023-04-08T11:27:58.474Z,30.03223
2023-04-08T11:29:58.338Z,31.02148
2023-04-08T11:31:58.458Z,30.83594
2023-04-08T11:33:58.380Z,31.25977
2023-04-08T11:35:58.466Z,30.13672
2023-04-08T11:37:58.407Z,32.36914
2023-04-08T11:39:58.386Z,32.02246
2023-04-08T11:41:58.316Z,32.05566
2023-04-08T11:43:57.506Z,32.30566
2023-04-08T11:45:57.353Z,31.27539
2023-04-08T11:47:57.491Z,30.01074
2023-04-08T11:49:57.623Z,31.0459
2023-04-08T11:51:57.940Z,31.59961
2023-04-08T11:53:57.962Z,32.17285
2023-04-08T11:55:57.356Z,31.70215
2023-04-08T11:58:34.597Z,33.29102
2023-04-08T12:00:34.582Z,34.10742
2023-04-08T12:02:34.843Z,33.43359
2023-04-08T12:04:34.726Z,33.7666
2023-04-08T12:06:34.411Z,34.45996
2023-04-08T12:08:34.620Z,34.50684
2023-04-08T12:10:34.448Z,33.48828
2023-04-08T12:13:55.489Z,33.69922
2023-04-08T12:15:55.702Z,34.33594
2023-04-08T12:17:55.687Z,33.7168
2023-04-08T12:19:55.653Z,33.45605
2023-04-08T12:21:55.875Z,33.70215
2023-04-08T12:23:55.409Z,33.73926
2023-04-08T12:25:55.526Z,35.04004
2023-04-08T12:28:40.718Z,36.05957
2023-04-08T12:30:40.621Z,36.32617
2023-04-08T12:32:40.714Z,35.28027
2023-04-08T12:34:40.641Z,36.2666
2023-04-08T12:36:42.095Z,35.86816
2023-04-08T12:38:40.737Z,34.91699
2023-04-08T12:40:40.639Z,37.30176
2023-04-08T12:44:11.244Z,36.88672
2023-04-08T12:46:11.096Z,35.71387
2023-04-08T12:48:11.223Z,34.57422
2023-04-08T12:50:11.045Z,35.35938
2023-04-08T12:52:11.100Z,34.43457
2023-04-08T12:54:11.237Z,34.54004
2023-04-08T12:56:11.380Z,32.99707
2023-04-08T12:59:05.311Z,34.64941
2023-04-08T13:01:05.296Z,35.32715
2023-04-08T13:03:05.387Z,33.83887
2023-04-08T13:05:05.394Z,34.45508
2023-04-08T13:07:05.609Z,34.10547
2023-04-08T13:09:05.224Z,33.20801
2023-04-08T13:11:05.470Z,34.0459
2023-04-08T13:14:38.440Z,34.57031
2023-04-08T13:16:38.641Z,33.69922
2023-04-08T13:18:38.294Z,32.8877
2023-04-08T13:20:38.406Z,32.97168
2023-04-08T13:22:38.344Z,34.40625
2023-04-08T13:24:38.444Z,33.23828
2023-04-08T13:26:38.351Z,34.28125
2023-04-08T13:29:55.750Z,34.63867
2023-04-08T13:31:55.453Z,33.95801
2023-04-08T13:33:58.518Z,33.90918
2023-04-08T13:35:55.340Z,35.13379
2023-04-08T13:37:55.269Z,35.68945
2023-04-08T13:39:55.234Z,36.02441
2023-04-08T13:41:55.246Z,35.7627
2023-04-08T13:45:05.513Z,35.83984
2023-04-08T13:47:05.363Z,36.83691
2023-04-08T13:49:05.449Z,37.05664
2023-04-08T13:51:05.340Z,37
2023-04-08T13:53:05.692Z,37.52832
2023-04-08T13:55:05.531Z,37.4873
2023-04-08T13:57:05.350Z,36.88184
2023-04-08T14:00:12.034Z,37.10742
2023-04-08T14:02:12.440Z,37.8584
2023-04-08T14:04:12.171Z,37.87598
2023-04-08T14:06:12.020Z,38.49414
2023-04-08T14:08:12.683Z,37.80664
2023-04-08T14:10:12.020Z,37.95313
2023-04-08T14:12:12.026Z,37.94238
2023-04-08T14:15:30.766Z,38.26953
2023-04-08T14:17:30.855Z,38.81152
2023-04-08T14:19:30.789Z,38.65527
2023-04-08T14:21:30.720Z,38.96191
2023-04-08T14:23:30.779Z,38.98438
2023-04-08T14:25:30.771Z,38.68652
2023-04-08T14:27:30.728Z,38.42969
2023-04-08T14:30:14.231Z,38.57031
2023-04-08T14:32:14.164Z,38.67871
2023-04-08T14:34:14.117Z,39.01172
2023-04-08T14:36:14.362Z,38.26172
2023-04-08T14:38:14.144Z,39.04199
2023-04-08T14:40:14.359Z,41.93848
2023-04-08T14:42:14.307Z,42.56055
2023-04-08T14:44:59.438Z,44.08105
2023-04-08T14:46:59.452Z,42.97168
2023-04-08T14:48:59.455Z,43.43164
2023-04-08T14:50:59.344Z,44.80762
2023-04-08T14:52:59.425Z,45.08301
2023-04-08T14:54:59.674Z,46.23242
2023-04-08T14:56:59.451Z,48.40332
2023-04-08T14:58:59.508Z,50.43555
2023-04-08T15:00:57.598Z,52.43652
2023-04-08T15:02:57.769Z,54.00293
2023-04-08T15:04:57.517Z,54.03809
2023-04-08T15:06:57.485Z,55.44922
2023-04-08T15:08:57.454Z,55.69141
2023-04-08T15:10:57.530Z,56.13672
2023-04-08T15:12:57.448Z,56.33203
2023-04-08T15:15:36.575Z,57.03711
2023-04-08T15:17:36.463Z,56.71582
2023-04-08T15:19:36.322Z,57.31348
2023-04-08T15:21:36.460Z,56.97363
2023-04-08T15:23:36.233Z,58.03809
2023-04-08T15:25:36.310Z,57.4043
2023-04-08T15:27:36.365Z,58.16504
2023-04-08T15:31:03.432Z,58.06836
2023-04-08T15:33:03.424Z,58.38086
2023-04-08T15:35:03.353Z,58.33105
2023-04-08T15:37:03.390Z,58.67285
2023-04-08T15:39:03.372Z,58.69727
2023-04-08T15:41:03.342Z,58.04199
2023-04-08T15:43:03.373Z,59.47461
2023-04-08T15:46:31.644Z,59.12793
2023-04-08T15:48:31.507Z,59.91211
2023-04-08T15:50:31.687Z,59.62402
2023-04-08T15:52:31.820Z,59.79297
2023-04-08T15:54:31.524Z,59.95996
2023-04-08T15:56:31.473Z,59.51074
2023-04-08T15:58:31.358Z,61.43555
2023-04-08T16:01:34.860Z,61.11914
2023-04-08T16:03:34.613Z,60.82617
2023-04-08T16:05:34.826Z,61.18652
2023-04-08T16:07:34.278Z,61.38379
2023-04-08T16:09:34.504Z,62.75586
2023-04-08T16:11:34.863Z,62.16406
2023-04-08T16:13:34.970Z,63.32324
2023-04-08T16:16:34.487Z,62.79883
2023-04-08T16:18:34.557Z,62.68848
2023-04-08T16:20:34.214Z,62.75684
2023-04-08T16:22:34.237Z,62.5293
2023-04-08T16:24:34.333Z,63.13086
2023-04-08T16:26:34.280Z,63.15137
2023-04-08T16:28:34.247Z,63.37305
2023-04-08T16:31:11.771Z,62.68262
2023-04-08T16:33:11.775Z,63.31445
2023-04-08T16:35:11.609Z,64.58398
2023-04-08T16:37:14.745Z,65.92773
2023-04-08T16:39:11.745Z,65.5791
2023-04-08T16:41:11.747Z,65.18457
2023-04-08T16:43:14.178Z,64.29102
2023-04-08T16:45:11.645Z,64.41602
2023-04-08T16:47:08.510Z,64.62598
2023-04-08T16:49:08.436Z,64.5
2023-04-08T16:51:08.601Z,65.33008
2023-04-08T16:53:08.590Z,65.19336
2023-04-08T16:55:08.653Z,65.21582
2023-04-08T16:57:08.649Z,65.05078
2023-04-08T16:59:08.580Z,64.76953
2023-04-08T17:01:42.391Z,64.89453
2023-04-08T17:03:42.762Z,65.25684
2023-04-08T17:05:42.569Z,64.98633
2023-04-08T17:07:42.273Z,64.92773
2023-04-08T17:09:42.447Z,64.79199
2023-04-08T17:11:42.325Z,64.67676
2023-04-08T17:13:42.390Z,64.73242
2023-04-08T17:17:08.751Z,65.0332
2023-04-08T17:19:08.763Z,65.21191
2023-04-08T17:21:08.711Z,65.63477
2023-04-08T17:23:08.891Z,65.43457
2023-04-08T17:25:11.812Z,65.44727
2023-04-08T17:27:08.902Z,65.59961
2023-04-08T17:29:09.352Z,65.43164
2023-04-08T17:32:16.470Z,65.46387
2023-04-08T17:34:16.383Z,65.47754
2023-04-08T17:36:16.196Z,65.54492
2023-04-08T17:38:16.376Z,65.83594
2023-04-08T17:40:16.027Z,65.50293
2023-04-08T17:42:16.005Z,65.61523
2023-04-08T17:44:16.102Z,65.96484
2023-04-08T17:47:24.571Z,66.46191
2023-04-08T17:49:24.532Z,67.00977
2023-04-08T17:51:24.514Z,66.66895
2023-04-08T17:53:24.499Z,66.48828
2023-04-08T17:55:24.531Z,66.30176
2023-04-08T17:57:24.509Z,66.375
2023-04-08T17:59:24.515Z,66.73242
2023-04-08T18:02:52.641Z,66.20898
2023-04-08T18:04:52.360Z,66.24023
2023-04-08T18:06:52.188Z,66.22754
2023-04-08T18:08:52.319Z,66.03125
2023-04-08T18:10:52.127Z,65.69629
2023-04-08T18:13:11.067Z,65.72852
2023-04-08T18:14:52.493Z,65.65039
2023-04-08T18:18:10.325Z,65.56152
2023-04-08T18:20:10.161Z,65.25293
2023-04-08T18:22:10.121Z,65.41699
2023-04-08T18:24:10.223Z,65.2373
2023-04-08T18:26:10.243Z,64.86816
2023-04-08T18:28:10.262Z,64.74805
2023-04-08T18:30:10.199Z,64.84375
2023-04-08T18:32:59.890Z,64.83398
2023-04-08T18:34:59.851Z,64.7627
2023-04-08T18:36:59.693Z,64.9707
2023-04-08T18:38:59.645Z,64.97266
2023-04-08T18:40:59.947Z,64.85449
2023-04-08T18:42:59.810Z,64.85547
2023-04-08T18:44:59.800Z,65.03418
2023-04-08T18:47:54.964Z,65.71387
2023-04-08T18:49:55.105Z,66.08105
2023-04-08T18:52:03.485Z,66.45215
2023-04-08T18:53:55.286Z,66.84277
2023-04-08T18:55:55.244Z,66.63281
2023-04-08T18:57:54.886Z,66.61914
2023-04-08T18:59:54.919Z,67.15527
2023-04-08T19:03:44.715Z,66.75684
2023-04-08T19:05:44.456Z,66.62012
2023-04-08T19:07:44.466Z,66.47656
2023-04-08T19:09:44.467Z,66.82715
2023-04-08T19:11:44.478Z,67.0166
2023-04-08T19:13:44.505Z,67.10059
2023-04-08T19:15:44.452Z,66.40527
2023-04-08T19:18:43.195Z,67.16895
2023-04-08T19:20:43.288Z,67.53809
2023-04-08T19:22:43.113Z,67.16113
2023-04-08T19:24:43.113Z,67.55566
2023-04-08T19:26:43.112Z,67.42676
2023-04-08T19:28:43.123Z,66.93945
2023-04-08T19:30:43.093Z,67.27051
2023-04-08T19:33:41.266Z,66.92188
2023-04-08T19:35:41.444Z,67.15332
2023-04-08T19:37:41.370Z,67.18457
2023-04-08T19:39:41.562Z,67.19629
2023-04-08T19:41:41.239Z,66.90137
2023-04-08T19:43:41.353Z,66.99609
2023-04-08T19:45:41.208Z,67.19336
2023-04-08T19:48:56.492Z,67.35547
2023-04-08T19:50:56.388Z,66.89258
2023-04-08T19:52:56.671Z,67.55273
2023-04-08T19:54:56.431Z,67.39551
2023-04-08T19:56:58.583Z,67.15332
2023-04-08T19:58:56.467Z,67.63867
2023-04-08T20:00:56.364Z,67.48633
2023-04-08T20:03:48.590Z,67.54102
2023-04-08T20:05:48.480Z,67.40723
2023-04-08T20:07:48.562Z,66.9707
2023-04-08T20:09:48.506Z,67.20996
2023-04-08T20:11:48.563Z,67.22461
2023-04-08T20:13:48.473Z,67.11035
2023-04-08T20:15:48.451Z,67.19531
2023-04-08T20:19:16.743Z,66.86816
2023-04-08T20:21:16.406Z,66.86816
2023-04-08T20:23:16.416Z,67.21289
2023-04-08T20:25:16.405Z,67.52734
2023-04-08T20:27:16.338Z,67.51074
2023-04-08T20:29:16.414Z,67.11914
2023-04-08T20:31:16.534Z,68.04395
2023-04-08T20:34:09.260Z,67.65332
2023-04-08T20:36:09.257Z,67.70801
2023-04-08T20:38:09.192Z,67.81543
2023-04-08T20:40:09.142Z,67.90137
2023-04-08T20:42:09.314Z,67.7793
2023-04-08T20:44:09.191Z,68.13574
2023-04-08T20:46:09.289Z,67.60449
2023-04-08T20:48:58.827Z,67.69922
2023-04-08T20:50:58.869Z,67.72559
2023-04-08T20:52:58.856Z,67.32813
2023-04-08T20:54:58.827Z,67.84375
2023-04-08T20:56:58.875Z,68.1582
2023-04-08T20:59:00.626Z,68.15625
2023-04-08T21:00:58.889Z,67.65234
2023-04-08T21:02:59.247Z,67.66211
2023-04-08T21:04:27.474Z,67.75391
2023-04-08T21:06:27.499Z,67.79785
2023-04-08T21:08:27.381Z,67.45703
2023-04-08T21:10:27.470Z,66.94238
2023-04-08T21:12:27.503Z,67.56934
2023-04-08T21:14:27.486Z,67.24121
2023-04-08T21:16:27.497Z,66.67383
2023-04-08T21:19:47.882Z,66.63672
2023-04-08T21:21:47.845Z,66.7793
2023-04-08T21:23:47.798Z,66.66504
2023-04-08T21:25:48.011Z,66.60352
2023-04-08T21:27:47.839Z,66.4502
2023-04-08T21:29:47.838Z,66.27539
2023-04-08T21:31:47.893Z,66.24707
2023-04-08T21:34:53.401Z,66.14453
2023-04-08T21:36:53.408Z,66.30176
2023-04-08T21:38:54.050Z,66.08008
2023-04-08T21:40:53.352Z,65.84277
2023-04-08T21:42:53.443Z,66.19531
2023-04-08T21:44:53.371Z,66.39063
2023-04-08T21:46:53.380Z,66.18945
2023-04-08T21:50:10.943Z,66.47168
2023-04-08T21:52:10.907Z,66.46094
2023-04-08T21:54:10.908Z,66.93066
2023-04-08T21:56:10.859Z,66.95996
2023-04-08T21:58:10.883Z,66.62207
2023-04-08T22:00:11.156Z,66.60449
2023-04-08T22:02:12.217Z,66.8291
2023-04-08T22:04:56.101Z,66.60156
2023-04-08T22:06:56.092Z,66.66406
2023-04-08T22:08:56.088Z,66.54395
2023-04-08T22:10:56.094Z,66.70898
2023-04-08T22:12:56.124Z,67.06836
2023-04-08T22:14:56.130Z,66.94238
2023-04-08T22:16:56.147Z,66.98242
2023-04-08T22:20:16.266Z,67.45215
2023-04-08T22:22:16.249Z,68
2023-04-08T22:24:16.185Z,68.25488
2023-04-08T22:26:16.190Z,67.99902
2023-04-08T22:28:16.641Z,67.73535
2023-04-08T22:30:16.237Z,68.46094
2023-04-08T22:32:16.240Z,68.45703
2023-04-08T22:37:34.107Z,67.69043
2023-04-08T22:39:34.167Z,68.23633
2023-04-08T22:41:34.093Z,68.13867
2023-04-08T22:43:34.064Z,68.67285
2023-04-08T22:45:34.148Z,68.56055
2023-04-08T22:47:34.255Z,67.91895
2023-04-08T22:51:05.389Z,68.34961
2023-04-08T22:53:05.536Z,68.12109
2023-04-08T22:55:05.428Z,68.29785
2023-04-08T22:57:05.399Z,68.33105
2023-04-08T22:59:05.424Z,68.14258
2023-04-08T23:01:05.518Z,68.25488
2023-04-08T23:03:05.543Z,68.03027
2023-04-08T23:05:54.356Z,67.87402
2023-04-08T23:07:54.378Z,68.17578
2023-04-08T23:09:54.382Z,68.27734
2023-04-08T23:11:54.354Z,68.17578
2023-04-08T23:13:54.359Z,68.20605
2023-04-08T23:15:54.371Z,67.9834
2023-04-08T23:17:54.495Z,68.21094
2023-04-08T23:20:47.135Z,68.48828
2023-04-08T23:22:47.110Z,68.99121
2023-04-08T23:24:47.300Z,68.75879
2023-04-08T23:26:47.290Z,68.41211
2023-04-08T23:28:47.447Z,68.38867
2023-04-08T23:30:47.339Z,68.40723
2023-04-08T23:32:47.485Z,68.30078
2023-04-08T23:36:11.948Z,68.62109
2023-04-08T23:38:11.882Z,68.83105
2023-04-08T23:40:11.924Z,68.95898
2023-04-08T23:42:11.860Z,68.96094
2023-04-08T23:44:11.784Z,69.14063
2023-04-08T23:46:11.928Z,69.16895
2023-04-08T23:48:11.850Z,69.28906
2023-04-08T23:51:27.224Z,69.55371
2023-04-08T23:53:27.143Z,69.2793
2023-04-08T23:55:27.180Z,69.72949
2023-04-08T23:57:27.185Z,69.39648
2023-04-08T23:59:27.143Z,69.45313
